Time;durP1;ratioP1;P1;durP2;ratioP2;P2;SDS_P1;SDS_P2;PMS_P1;PMS_P2;Temp;Humidity;BMP_temperature;BMP_pressure;BME280_temperature;BME280_humidity;BME280_pressure;Samples;Min_cycle;Max_cycle;Signal;HPM_P1;HPM_P2
2023/02/25 00:01:25;;;;;;;9.60;4.70;;;;;;;;;;5042753;28;20913;-69
2023/02/25 00:03:51;;;;;;;8.20;5.20;;;;;;;;;;5049453;28;20025;-70
2023/02/25 00:06:17;;;;;;;9.35;3.70;;;;;;;;;;5049477;28;20028;-69
2023/02/25 00:08:44;;;;;;;8.57;4.40;;;;;;;;;;5049783;28;20513;-71
2023/02/25 00:11:10;;;;;;;7.50;4.28;;;;;;;;;;5040030;28;20264;-72
2023/02/25 00:13:35;;;;;;;8.90;4.65;;;;;;;;;;5050349;28;20039;-73
2023/02/25 00:16:04;;;;;;;7.90;4.38;;;;;;;;;;5039161;28;20386;-72
2023/02/25 00:18:30;;;;;;;9.37;4.40;;;;;;;;;;5049519;28;20056;-73
2023/02/25 00:20:55;;;;;;;7.65;4.53;;;;;;;;;;5031956;28;20399;-71
2023/02/25 00:23:20;;;;;;;7.47;4.32;;;;;;;;;;5049833;28;20020;-74
2023/02/25 00:25:46;;;;;;;8.23;4.93;;;;;;;;;;5028313;28;20483;-72
2023/02/25 00:28:11;;;;;;;6.68;4.00;;;;;;;;;;5045818;28;20670;-69
2023/02/25 00:30:37;;;;;;;11.95;5.07;;;;;;;;;;5030276;28;20127;-69
2023/02/25 00:33:04;;;;;;;8.18;4.65;;;;;;;;;;5049382;28;20383;-72
2023/02/25 00:35:29;;;;;;;8.25;4.88;;;;;;;;;;5049812;28;20029;-68
2023/02/25 00:37:54;;;;;;;6.95;4.18;;;;;;;;;;5048282;28;20025;-69
2023/02/25 00:40:58;;;;;;;7.00;4.30;;;;;;;;;;5039520;28;20533;-68
2023/02/25 00:43:29;;;;;;;6.83;3.77;;;;;;;;;;5049758;28;20295;-68
2023/02/25 00:45:54;;;;;;;7.10;4.03;;;;;;;;;;5049261;28;20486;-66
2023/02/25 00:48:21;;;;;;;10.07;4.70;;;;;;;;;;5052751;28;20119;-68
2023/02/25 00:50:46;;;;;;;7.57;3.97;;;;;;;;;;5048904;28;20070;-68
2023/02/25 00:53:11;;;;;;;10.70;5.13;;;;;;;;;;5046598;28;20116;-66
2023/02/25 00:55:36;;;;;;;11.23;4.50;;;;;;;;;;5029755;28;20322;-68
2023/02/25 00:58:02;;;;;;;10.60;4.53;;;;;;;;;;5049528;28;21005;-66
2023/02/25 01:00:28;;;;;;;6.88;4.35;;;;;;;;;;5048571;28;20737;-66
2023/02/25 01:02:54;;;;;;;9.40;5.00;;;;;;;;;;5044091;28;20044;-77
2023/02/25 01:05:19;;;;;;;10.75;4.75;;;;;;;;;;5043762;28;20123;-79
2023/02/25 01:07:45;;;;;;;8.93;4.93;;;;;;;;;;5048797;28;20100;-72
2023/02/25 01:10:10;;;;;;;9.43;4.93;;;;;;;;;;5048084;28;20337;-70
2023/02/25 01:12:36;;;;;;;11.63;5.97;;;;;;;;;;5048543;28;20280;-68
2023/02/25 01:15:01;;;;;;;7.05;4.72;;;;;;;;;;5047825;28;20063;-69
2023/02/25 01:17:26;;;;;;;10.57;4.53;;;;;;;;;;5048114;28;20147;-70
2023/02/25 01:19:51;;;;;;;7.73;4.30;;;;;;;;;;5048627;28;20055;-69
2023/02/25 01:22:17;;;;;;;11.10;4.67;;;;;;;;;;5048641;28;20728;-77
2023/02/25 01:24:42;;;;;;;8.70;3.60;;;;;;;;;;5044404;28;20919;-70
2023/02/25 01:27:07;;;;;;;9.60;4.50;;;;;;;;;;5046110;28;21085;-70
2023/02/25 01:29:34;;;;;;;9.67;4.20;;;;;;;;;;5047683;28;20309;-72
2023/02/25 01:32:00;;;;;;;8.95;4.60;;;;;;;;;;5048106;28;20283;-70
2023/02/25 01:34:26;;;;;;;7.70;3.97;;;;;;;;;;5047650;28;20025;-70
2023/02/25 01:36:51;;;;;;;6.65;3.53;;;;;;;;;;5045130;28;20029;-71
2023/02/25 01:39:20;;;;;;;8.55;4.20;;;;;;;;;;5046111;28;20086;-69
2023/02/25 01:41:47;;;;;;;8.23;4.15;;;;;;;;;;5037935;28;20021;-69
2023/02/25 01:44:18;;;;;;;8.80;4.05;;;;;;;;;;5041796;28;20083;-68
2023/02/25 01:46:44;;;;;;;6.57;3.30;;;;;;;;;;5048703;28;20051;-68
2023/02/25 01:49:28;;;;;;;8.70;4.57;;;;;;;;;;5027369;28;20041;-69
2023/02/25 01:51:56;;;;;;;6.78;3.45;;;;;;;;;;5055574;28;20029;-67
2023/02/25 01:54:21;;;;;;;5.35;2.90;;;;;;;;;;5041361;28;20461;-69
2023/02/25 01:56:48;;;;;;;6.47;3.90;;;;;;;;;;5042396;28;20025;-68
2023/02/25 01:59:14;;;;;;;7.28;3.30;;;;;;;;;;5048506;28;20290;-69
2023/02/25 02:01:40;;;;;;;6.68;3.22;;;;;;;;;;5048088;28;20021;-70
2023/02/25 02:04:09;;;;;;;5.65;2.75;;;;;;;;;;5042219;28;20041;-70
2023/02/25 02:06:39;;;;;;;5.35;2.83;;;;;;;;;;5046541;28;20074;-69
2023/02/25 02:09:05;;;;;;;;;;;;;;;;;;5048780;28;20040;-71
2023/02/25 02:11:30;;;;;;;5.15;2.72;;;;;;;;;;5048090;28;19912;-69
2023/02/25 02:13:56;;;;;;;5.93;2.90;;;;;;;;;;5044264;28;20364;-69
2023/02/25 02:16:40;;;;;;;5.88;2.80;;;;;;;;;;5042166;28;20379;-69
2023/02/25 02:19:30;;;;;;;5.72;2.70;;;;;;;;;;5044406;28;20112;-71
2023/02/25 02:22:02;;;;;;;6.18;2.78;;;;;;;;;;5045558;28;20052;-70
2023/02/25 02:24:30;;;;;;;4.80;2.72;;;;;;;;;;5049039;28;20064;-71
2023/02/25 02:27:02;;;;;;;5.57;3.03;;;;;;;;;;5030144;28;20025;-72
2023/02/25 02:29:44;;;;;;;6.28;2.95;;;;;;;;;;5048565;28;20065;-70
2023/02/25 02:32:09;;;;;;;4.88;2.50;;;;;;;;;;5046568;28;20383;-71
2023/02/25 02:34:53;;;;;;;10.13;2.70;;;;;;;;;;5044437;28;20119;-71
2023/02/25 02:37:41;;;;;;;8.32;2.92;;;;;;;;;;5038150;28;20021;-71
2023/02/25 02:40:15;;;;;;;9.05;3.60;;;;;;;;;;5047755;28;20033;-70
2023/02/25 02:42:46;;;;;;;6.78;3.03;;;;;;;;;;5045272;28;20024;-70
2023/02/25 02:45:24;;;;;;;5.57;3.25;;;;;;;;;;5052109;28;20025;-72
2023/02/25 02:47:56;;;;;;;6.53;3.08;;;;;;;;;;5044238;28;20163;-70
2023/02/25 02:50:48;;;;;;;6.30;3.08;;;;;;;;;;5046190;28;20033;-70
2023/02/25 02:53:16;;;;;;;5.10;2.78;;;;;;;;;;5040126;28;20029;-68
2023/02/25 02:55:51;;;;;;;7.65;2.90;;;;;;;;;;5056780;28;20024;-67
2023/02/25 02:58:16;;;;;;;3.88;2.30;;;;;;;;;;5047497;28;20032;-67
2023/02/25 03:00:43;;;;;;;7.10;2.90;;;;;;;;;;5032018;28;20037;-68
2023/02/25 03:03:13;;;;;;;6.43;2.90;;;;;;;;;;5051124;28;20129;-67
2023/02/25 03:05:40;;;;;;;9.68;2.70;;;;;;;;;;5042575;28;20025;-68
2023/02/25 03:08:08;;;;;;;10.02;3.25;;;;;;;;;;5049498;28;20260;-66
2023/02/25 03:10:33;;;;;;;5.00;2.63;;;;;;;;;;5050403;28;20098;-70
2023/02/25 03:12:58;;;;;;;9.18;3.65;;;;;;;;;;5047746;28;20060;-73
2023/02/25 03:15:24;;;;;;;5.67;2.57;;;;;;;;;;5038149;28;20204;-70
2023/02/25 03:17:53;;;;;;;6.85;2.85;;;;;;;;;;5051429;28;20622;-70
2023/02/25 03:20:22;;;;;;;6.47;2.65;;;;;;;;;;5051220;28;20116;-70
2023/02/25 03:22:49;;;;;;;5.72;2.22;;;;;;;;;;5045077;28;20379;-68
2023/02/25 03:25:17;;;;;;;4.97;2.42;;;;;;;;;;5050715;28;20029;-70
2023/02/25 03:27:43;;;;;;;5.95;2.50;;;;;;;;;;5058077;28;20037;-68
2023/02/25 03:30:21;;;;;;;6.65;3.20;;;;;;;;;;5052272;28;20098;-75
2023/02/25 03:32:48;;;;;;;5.53;2.50;;;;;;;;;;5047345;28;20711;-68
2023/02/25 03:35:16;;;;;;;7.63;2.75;;;;;;;;;;5048841;28;20029;-66
2023/02/25 03:37:43;;;;;;;5.70;2.50;;;;;;;;;;5051003;28;20029;-69
2023/02/25 03:40:12;;;;;;;7.05;2.70;;;;;;;;;;5032976;28;20025;-68
2023/02/25 03:42:41;;;;;;;6.68;2.40;;;;;;;;;;5042227;28;20048;-69
2023/02/25 03:45:07;;;;;;;8.13;2.88;;;;;;;;;;5049536;28;20029;-68
2023/02/25 03:47:34;;;;;;;7.50;2.70;;;;;;;;;;5048631;28;20116;-67
2023/02/25 03:50:01;;;;;;;4.72;2.28;;;;;;;;;;5029537;28;20025;-68
2023/02/25 03:52:39;;;;;;;6.53;1.90;;;;;;;;;;5050581;28;20021;-73
2023/02/25 03:55:05;;;;;;;4.78;1.77;;;;;;;;;;5027600;28;20036;-72
2023/02/25 03:57:35;;;;;;;6.18;2.83;;;;;;;;;;5045059;28;20038;-72
2023/02/25 04:00:12;;;;;;;6.78;1.92;;;;;;;;;;5058985;28;20021;-72
2023/02/25 04:02:39;;;;;;;5.47;1.73;;;;;;;;;;5050455;28;20025;-72
2023/02/25 04:05:04;;;;;;;6.20;1.50;;;;;;;;;;5050507;28;20387;-74
2023/02/25 04:07:29;;;;;;;3.72;1.88;;;;;;;;;;5044912;28;20021;-69
2023/02/25 04:10:05;;;;;;;3.03;1.50;;;;;;;;;;5050420;28;20020;-68
2023/02/25 04:12:33;;;;;;;2.67;1.45;;;;;;;;;;5032834;28;20268;-79
2023/02/25 04:14:58;;;;;;;8.15;2.00;;;;;;;;;;5049231;28;20845;-77
2023/02/25 04:17:24;;;;;;;5.23;1.77;;;;;;;;;;5049208;28;20021;-72
2023/02/25 04:19:49;;;;;;;226.32;120.50;;;;;;;;;;5031135;28;20677;-73
2023/02/25 04:22:14;;;;;;;18.97;8.97;;;;;;;;;;5047003;28;20052;-78
2023/02/25 04:24:40;;;;;;;6.43;1.87;;;;;;;;;;5048533;28;20275;-78
2023/02/25 04:27:05;;;;;;;2.80;1.52;;;;;;;;;;5046710;28;20282;-70
2023/02/25 04:29:30;;;;;;;4.88;2.00;;;;;;;;;;5050498;28;20360;-78
2023/02/25 04:31:55;;;;;;;2.83;1.53;;;;;;;;;;5056332;28;20107;-80
2023/02/25 04:34:21;;;;;;;6.82;2.10;;;;;;;;;;5050221;28;20362;-77
2023/02/25 04:36:46;;;;;;;4.72;2.35;;;;;;;;;;5047218;28;20063;-78
2023/02/25 04:39:12;;;;;;;3.85;1.45;;;;;;;;;;5045048;28;20037;-79
2023/02/25 04:41:38;;;;;;;4.90;2.78;;;;;;;;;;5050259;28;20033;-79
2023/02/25 04:44:04;;;;;;;5.68;2.00;;;;;;;;;;5050077;28;20025;-74
2023/02/25 04:46:30;;;;;;;5.32;2.00;;;;;;;;;;5043317;28;20515;-75
2023/02/25 04:48:55;;;;;;;4.68;1.73;;;;;;;;;;5044104;28;20032;-68
2023/02/25 04:51:22;;;;;;;3.80;1.58;;;;;;;;;;5042589;28;20143;-69
2023/02/25 04:53:47;;;;;;;6.25;1.90;;;;;;;;;;5036905;28;20473;-69
2023/02/25 04:56:13;;;;;;;8.25;1.75;;;;;;;;;;5021778;28;20045;-69
2023/02/25 04:58:38;;;;;;;3.58;1.75;;;;;;;;;;5044393;28;20037;-70
2023/02/25 05:01:04;;;;;;;6.65;2.95;;;;;;;;;;5043789;28;20052;-70
2023/02/25 05:03:30;;;;;;;4.50;1.58;;;;;;;;;;5052523;28;20052;-75
2023/02/25 05:05:56;;;;;;;5.07;1.70;;;;;;;;;;5050660;28;20464;-77
2023/02/25 05:08:21;;;;;;;5.15;1.67;;;;;;;;;;5047987;28;20076;-79
2023/02/25 05:10:46;;;;;;;2.40;1.10;;;;;;;;;;5046587;28;20035;-77
2023/02/25 05:13:11;;;;;;;4.53;1.27;;;;;;;;;;5049773;28;20100;-78
2023/02/25 05:15:37;;;;;;;3.93;1.50;;;;;;;;;;5045805;28;20338;-77
2023/02/25 05:18:02;;;;;;;4.27;1.63;;;;;;;;;;5047399;28;20570;-78
2023/02/25 05:20:30;;;;;;;3.08;1.50;;;;;;;;;;5049097;28;20758;-76
2023/02/25 05:22:55;;;;;;;2.35;1.65;;;;;;;;;;5044619;28;20495;-69
2023/02/25 05:25:20;;;;;;;4.87;1.40;;;;;;;;;;5047985;28;20039;-66
2023/02/25 05:27:45;;;;;;;3.53;1.77;;;;;;;;;;5045758;28;20295;-69
2023/02/25 05:30:11;;;;;;;4.45;1.08;;;;;;;;;;5049099;28;20464;-68
2023/02/25 05:32:37;;;;;;;2.15;1.15;;;;;;;;;;5049236;28;20033;-66
2023/02/25 05:35:02;;;;;;;1.67;1.08;;;;;;;;;;5054209;28;20036;-69
2023/02/25 05:37:29;;;;;;;4.95;1.25;;;;;;;;;;5048223;28;20025;-67
2023/02/25 05:39:55;;;;;;;2.15;1.27;;;;;;;;;;5032142;28;20429;-69
2023/02/25 05:42:20;;;;;;;7.37;1.63;;;;;;;;;;5037560;28;20110;-69
2023/02/25 05:44:45;;;;;;;6.90;1.20;;;;;;;;;;5048992;28;20361;-68
2023/02/25 05:47:12;;;;;;;4.07;1.25;;;;;;;;;;5039614;28;20316;-69
2023/02/25 05:49:37;;;;;;;6.60;1.20;;;;;;;;;;5045936;28;20017;-69
2023/02/25 05:52:03;;;;;;;8.03;2.00;;;;;;;;;;5048911;28;20564;-69
2023/02/25 05:54:28;;;;;;;5.27;1.93;;;;;;;;;;5048535;28;20774;-70
2023/02/25 05:56:53;;;;;;;4.13;1.33;;;;;;;;;;5048861;28;20828;-69
2023/02/25 05:59:18;;;;;;;3.47;1.13;;;;;;;;;;5030835;28;20033;-69
2023/02/25 06:01:43;;;;;;;8.10;2.08;;;;;;;;;;5048386;28;20067;-67
2023/02/25 06:04:09;;;;;;;4.73;1.40;;;;;;;;;;5030530;28;20029;-69
2023/02/25 06:06:34;;;;;;;5.47;1.58;;;;;;;;;;5051710;28;20271;-66
2023/02/25 06:08:59;;;;;;;6.87;1.57;;;;;;;;;;5052110;28;20646;-67
2023/02/25 06:11:26;;;;;;;2.67;1.40;;;;;;;;;;5047965;28;20943;-67
2023/02/25 06:13:52;;;;;;;3.05;1.20;;;;;;;;;;5048764;28;20053;-68
2023/02/25 06:16:17;;;;;;;4.97;1.20;;;;;;;;;;5050173;28;20067;-74
2023/02/25 06:18:43;;;;;;;5.40;1.00;;;;;;;;;;5045212;28;20040;-78
2023/02/25 06:21:10;;;;;;;4.25;1.10;;;;;;;;;;5045304;28;20029;-69
2023/02/25 06:23:36;;;;;;;5.28;1.77;;;;;;;;;;5048911;28;20021;-69
2023/02/25 06:26:03;;;;;;;3.72;1.42;;;;;;;;;;5049095;28;20123;-68
2023/02/25 06:28:28;;;;;;;7.13;2.05;;;;;;;;;;5048959;28;20479;-68
2023/02/25 06:30:54;;;;;;;5.33;2.47;;;;;;;;;;5052039;28;20024;-67
2023/02/25 06:33:19;;;;;;;3.20;1.70;;;;;;;;;;5052483;28;20268;-68
2023/02/25 06:35:44;;;;;;;3.33;1.77;;;;;;;;;;5052036;28;20283;-76
2023/02/25 06:38:09;;;;;;;6.07;1.80;;;;;;;;;;5052663;28;20371;-67
2023/02/25 06:40:36;;;;;;;5.63;1.60;;;;;;;;;;5057994;28;20665;-67
2023/02/25 06:43:01;;;;;;;5.32;1.50;;;;;;;;;;5041315;28;20315;-68
2023/02/25 06:45:26;;;;;;;4.27;1.30;;;;;;;;;;5051290;28;20059;-68
2023/02/25 06:47:52;;;;;;;2.40;1.47;;;;;;;;;;5046125;28;20319;-69
2023/02/25 06:50:17;;;;;;;2.43;1.30;;;;;;;;;;5047986;28;20326;-68
2023/02/25 06:52:43;;;;;;;3.40;1.55;;;;;;;;;;5051320;28;20053;-67
2023/02/25 06:55:08;;;;;;;7.90;2.17;;;;;;;;;;5051835;28;20055;-67
2023/02/25 06:57:33;;;;;;;5.07;1.35;;;;;;;;;;5033225;28;20017;-66
2023/02/25 06:59:59;;;;;;;3.43;1.40;;;;;;;;;;5044412;28;20040;-68
2023/02/25 07:02:24;;;;;;;3.13;1.47;;;;;;;;;;5046133;28;20354;-68
2023/02/25 07:04:51;;;;;;;4.50;1.43;;;;;;;;;;5051648;28;20417;-67
2023/02/25 07:07:17;;;;;;;3.40;1.55;;;;;;;;;;5051731;28;20334;-66
2023/02/25 07:09:42;;;;;;;3.97;1.73;;;;;;;;;;5051273;28;20248;-66
2023/02/25 07:12:07;;;;;;;3.50;1.40;;;;;;;;;;5059726;28;20693;-73
2023/02/25 07:14:32;;;;;;;6.90;1.55;;;;;;;;;;5051508;28;20086;-70
2023/02/25 07:16:57;;;;;;;5.97;1.73;;;;;;;;;;5051709;28;20496;-68
2023/02/25 07:19:23;;;;;;;8.00;2.47;;;;;;;;;;5050037;28;20295;-69
2023/02/25 07:21:48;;;;;;;5.23;1.53;;;;;;;;;;5047774;28;20045;-67
2023/02/25 07:24:13;;;;;;;3.03;1.30;;;;;;;;;;5051263;28;20274;-68
2023/02/25 07:26:39;;;;;;;4.05;1.25;;;;;;;;;;5036941;28;20053;-69
2023/02/25 07:29:04;;;;;;;4.55;1.52;;;;;;;;;;5051263;28;20029;-69
2023/02/25 07:31:36;;;;;;;6.85;1.85;;;;;;;;;;5046156;28;20036;-74
2023/02/25 07:34:03;;;;;;;7.25;1.48;;;;;;;;;;5032841;28;20025;-68
2023/02/25 07:36:31;;;;;;;6.35;1.60;;;;;;;;;;5051208;28;20025;-68
2023/02/25 07:38:57;;;;;;;5.25;1.48;;;;;;;;;;5049061;28;20044;-67
2023/02/25 07:41:22;;;;;;;5.53;1.48;;;;;;;;;;5044745;28;20032;-68
2023/02/25 07:43:47;;;;;;;4.72;1.52;;;;;;;;;;5054231;28;20025;-68
2023/02/25 07:46:13;;;;;;;4.88;1.40;;;;;;;;;;5050869;28;20471;-70
2023/02/25 07:48:38;;;;;;;6.63;1.85;;;;;;;;;;5044017;28;20037;-69
2023/02/25 07:51:05;;;;;;;6.07;1.52;;;;;;;;;;5032361;28;20087;-77
2023/02/25 07:53:30;;;;;;;2.30;1.23;;;;;;;;;;5051797;28;20491;-78
2023/02/25 07:55:55;;;;;;;6.60;1.90;;;;;;;;;;5051940;28;20170;-78
2023/02/25 07:58:20;;;;;;;5.57;1.35;;;;;;;;;;5052320;28;20307;-78
2023/02/25 08:00:46;;;;;;;6.27;1.43;;;;;;;;;;5052312;28;20468;-77
2023/02/25 08:03:11;;;;;;;4.88;1.60;;;;;;;;;;5052181;28;20358;-77
2023/02/25 08:05:36;;;;;;;6.77;1.60;;;;;;;;;;5051916;28;20475;-78
2023/02/25 08:08:02;;;;;;;5.32;1.33;;;;;;;;;;5050980;28;21062;-70
2023/02/25 08:10:28;;;;;;;5.00;1.48;;;;;;;;;;5050122;28;20027;-69
2023/02/25 08:12:53;;;;;;;4.22;1.40;;;;;;;;;;5050228;28;20483;-70
2023/02/25 08:15:18;;;;;;;3.03;1.00;;;;;;;;;;5048643;28;20035;-69
2023/02/25 08:17:43;;;;;;;4.38;1.00;;;;;;;;;;5051800;28;20311;-69
2023/02/25 08:20:09;;;;;;;3.83;1.50;;;;;;;;;;5050064;28;20112;-66
2023/02/25 08:22:34;;;;;;;5.82;1.55;;;;;;;;;;5049955;28;20028;-67
2023/02/25 08:24:59;;;;;;;5.15;1.38;;;;;;;;;;5044162;28;20094;-69
2023/02/25 08:27:25;;;;;;;3.97;1.77;;;;;;;;;;5050384;28;20396;-69
2023/02/25 08:29:50;;;;;;;8.18;1.50;;;;;;;;;;5050200;28;20758;-74
2023/02/25 08:32:15;;;;;;;7.03;1.30;;;;;;;;;;5049940;28;20055;-74
2023/02/25 08:34:41;;;;;;;5.15;1.17;;;;;;;;;;5044309;28;20276;-74
2023/02/25 08:37:07;;;;;;;7.05;1.60;;;;;;;;;;5049921;28;20132;-75
2023/02/25 08:39:34;;;;;;;4.80;1.80;;;;;;;;;;5049098;28;20043;-75
2023/02/25 08:41:59;;;;;;;4.10;1.20;;;;;;;;;;5049552;28;20057;-74
2023/02/25 08:44:25;;;;;;;2.85;1.42;;;;;;;;;;5049801;28;20059;-70
2023/02/25 08:46:50;;;;;;;9.37;1.87;;;;;;;;;;5052353;28;20036;-66
2023/02/25 08:49:15;;;;;;;4.00;1.40;;;;;;;;;;5050271;28;20417;-68
2023/02/25 08:51:40;;;;;;;4.90;1.20;;;;;;;;;;5049714;28;20271;-66
2023/02/25 08:54:07;;;;;;;6.10;1.57;;;;;;;;;;5048846;28;20279;-67
2023/02/25 08:56:34;;;;;;;4.65;1.55;;;;;;;;;;5045930;28;20301;-66
2023/02/25 08:58:59;;;;;;;2.42;1.33;;;;;;;;;;5048234;28;20107;-67
2023/02/25 09:01:24;;;;;;;8.02;1.70;;;;;;;;;;5049217;28;20115;-68
2023/02/25 09:03:52;;;;;;;4.75;1.30;;;;;;;;;;5049499;28;20047;-68
2023/02/25 09:06:27;;;;;;;2.63;1.38;;;;;;;;;;5043940;28;20052;-66
2023/02/25 09:08:53;;;;;;;5.68;2.05;;;;;;;;;;5047689;28;20044;-70
2023/02/25 09:11:19;;;;;;;7.38;1.75;;;;;;;;;;5047706;28;20059;-66
2023/02/25 09:13:44;;;;;;;4.85;1.35;;;;;;;;;;5047823;28;20060;-68
2023/02/25 09:16:10;;;;;;;5.30;1.50;;;;;;;;;;5040716;28;20531;-69
2023/02/25 09:18:35;;;;;;;4.75;1.58;;;;;;;;;;5049972;28;20428;-65
2023/02/25 09:21:01;;;;;;;4.28;1.60;;;;;;;;;;5049237;28;20134;-67
2023/02/25 09:23:26;;;;;;;4.10;1.52;;;;;;;;;;5030501;28;20119;-70
2023/02/25 09:25:51;;;;;;;5.23;1.87;;;;;;;;;;5045266;28;20452;-68
2023/02/25 09:28:16;;;;;;;5.70;1.90;;;;;;;;;;5040619;28;20692;-71
2023/02/25 09:30:45;;;;;;;2.65;1.35;;;;;;;;;;5047350;28;20682;-71
2023/02/25 09:33:11;;;;;;;4.47;1.60;;;;;;;;;;5048507;28;20124;-69
2023/02/25 09:35:36;;;;;;;7.70;1.50;;;;;;;;;;5047273;28;20108;-71
2023/02/25 09:38:01;;;;;;;4.43;2.13;;;;;;;;;;5039186;28;20032;-69
2023/02/25 09:40:26;;;;;;;4.23;1.30;;;;;;;;;;5046617;28;20025;-69
2023/02/25 09:42:58;;;;;;;4.50;1.63;;;;;;;;;;5041728;28;20279;-68
2023/02/25 09:45:24;;;;;;;3.15;1.17;;;;;;;;;;5045912;28;20275;-68
2023/02/25 09:47:53;;;;;;;4.32;1.58;;;;;;;;;;5039227;28;20093;-68
2023/02/25 09:50:20;;;;;;;3.93;1.37;;;;;;;;;;5054430;28;20430;-67
2023/02/25 09:53:08;;;;;;;3.38;1.23;;;;;;;;;;5057608;28;20024;-67
2023/02/25 09:55:36;;;;;;;3.25;1.05;;;;;;;;;;5051810;28;20029;-68
2023/02/25 09:58:04;;;;;;;3.38;1.30;;;;;;;;;;5053428;28;20097;-69
2023/02/25 10:00:32;;;;;;;13.48;1.42;;;;;;;;;;5036602;28;20052;-74
2023/02/25 10:02:57;;;;;;;1.77;0.90;;;;;;;;;;5054051;28;20239;-74
2023/02/25 10:05:58;;;;;;;2.17;1.00;;;;;;;;;;5054277;28;20108;-73
2023/02/25 10:08:37;;;;;;;2.65;0.80;;;;;;;;;;4969766;28;20105;-72
2023/02/25 10:11:08;;;;;;;3.42;0.90;;;;;;;;;;5039347;28;20105;-73
2023/02/25 10:13:43;;;;;;;2.85;1.00;;;;;;;;;;5053836;28;20028;-72
2023/02/25 10:16:18;;;;;;;5.07;1.20;;;;;;;;;;5045308;28;20049;-80
2023/02/25 10:18:53;;;;;;;3.72;1.05;;;;;;;;;;5054242;28;20033;-74
2023/02/25 10:21:18;;;;;;;1.60;0.95;;;;;;;;;;5053183;28;20147;-73
2023/02/25 10:24:04;;;;;;;2.40;1.27;;;;;;;;;;5061855;28;20033;-73
2023/02/25 10:26:32;;;;;;;2.10;0.90;;;;;;;;;;5054989;28;20282;-73
2023/02/25 10:29:00;;;;;;;3.05;0.82;;;;;;;;;;5055219;28;20720;-72
2023/02/25 10:31:28;;;;;;;2.60;0.80;;;;;;;;;;5055134;28;20040;-74
2023/02/25 10:33:54;;;;;;;3.55;1.10;;;;;;;;;;5054860;28;20112;-69
2023/02/25 10:36:38;;;;;;;4.07;0.95;;;;;;;;;;5051217;28;20026;-73
2023/02/25 10:39:03;;;;;;;4.63;0.70;;;;;;;;;;5050815;28;20420;-67
2023/02/25 10:41:29;;;;;;;2.22;0.90;;;;;;;;;;5052775;28;20032;-67
2023/02/25 10:43:54;;;;;;;3.53;1.15;;;;;;;;;;5052435;28;20036;-67
2023/02/25 10:46:22;;;;;;;4.90;1.13;;;;;;;;;;5051862;28;20391;-68
2023/02/25 10:48:55;;;;;;;4.28;1.25;;;;;;;;;;5050667;28;20032;-68
2023/02/25 10:51:21;;;;;;;2.92;1.08;;;;;;;;;;5054940;28;20035;-71
2023/02/25 10:54:06;;;;;;;4.40;1.23;;;;;;;;;;5052228;28;20408;-69
2023/02/25 10:56:42;;;;;;;2.20;1.00;;;;;;;;;;5056477;28;20035;-69
2023/02/25 10:59:23;;;;;;;3.75;1.52;;;;;;;;;;5051405;28;20068;-69
2023/02/25 11:01:48;;;;;;;1.23;0.80;;;;;;;;;;5052678;28;20029;-71
2023/02/25 11:04:16;;;;;;;3.05;1.48;;;;;;;;;;5042194;28;20033;-70
2023/02/25 11:06:42;;;;;;;4.97;1.55;;;;;;;;;;5051676;28;20079;-68
2023/02/25 11:09:19;;;;;;;2.30;0.75;;;;;;;;;;5051270;28;20033;-69
2023/02/25 11:11:54;;;;;;;6.03;1.40;;;;;;;;;;5039246;28;20391;-69
2023/02/25 11:14:26;;;;;;;3.65;1.00;;;;;;;;;;5043611;28;20037;-67
2023/02/25 11:17:00;;;;;;;2.83;0.88;;;;;;;;;;5039311;28;20041;-70
2023/02/25 11:19:29;;;;;;;3.40;1.27;;;;;;;;;;5041777;28;20074;-68
2023/02/25 11:21:56;;;;;;;2.50;1.00;;;;;;;;;;5051173;28;20029;-67
2023/02/25 11:24:33;;;;;;;3.65;1.05;;;;;;;;;;5049424;28;20148;-69
2023/02/25 11:26:59;;;;;;;5.72;1.77;;;;;;;;;;5042910;28;21595;-69
2023/02/25 11:29:31;;;;;;;1.77;1.25;;;;;;;;;;5054061;28;20082;-68
2023/02/25 11:32:06;;;;;;;3.38;0.90;;;;;;;;;;5046377;28;20033;-67
2023/02/25 11:34:31;;;;;;;4.45;1.63;;;;;;;;;;5048740;28;20056;-66
2023/02/25 11:37:17;;;;;;;4.03;1.33;;;;;;;;;;5050794;28;20068;-66
2023/02/25 11:39:50;;;;;;;2.45;1.02;;;;;;;;;;5050962;28;20032;-68
2023/02/25 11:42:23;;;;;;;3.67;1.35;;;;;;;;;;5044110;28;20100;-66
2023/02/25 11:44:49;;;;;;;5.07;1.05;;;;;;;;;;5050498;28;20060;-66
2023/02/25 11:47:20;;;;;;;3.15;1.10;;;;;;;;;;5049944;28;20067;-73
2023/02/25 11:49:51;;;;;;;2.17;1.50;;;;;;;;;;5042559;28;20078;-74
2023/02/25 11:52:24;;;;;;;1.15;0.98;;;;;;;;;;5050898;28;20031;-68
2023/02/25 11:54:59;;;;;;;3.13;1.40;;;;;;;;;;5050423;28;20083;-71
2023/02/25 11:57:24;;;;;;;3.72;1.00;;;;;;;;;;5050157;28;20041;-70
2023/02/25 12:00:01;;;;;;;4.77;1.27;;;;;;;;;;5041149;28;20040;-70
2023/02/25 12:02:26;;;;;;;1.88;1.02;;;;;;;;;;5050028;28;20041;-69
2023/02/25 12:05:07;;;;;;;4.17;1.20;;;;;;;;;;5049439;28;20471;-68
2023/02/25 12:07:55;;;;;;;3.47;1.38;;;;;;;;;;5049726;28;20036;-72
2023/02/25 12:10:32;;;;;;;3.40;1.25;;;;;;;;;;5050220;28;20033;-73
2023/02/25 12:13:07;;;;;;;2.20;0.98;;;;;;;;;;5049906;28;20020;-75
2023/02/25 12:15:51;;;;;;;4.93;1.40;;;;;;;;;;5048021;28;20040;-73
2023/02/25 12:18:22;;;;;;;1.85;1.17;;;;;;;;;;5044430;28;20029;-74
2023/02/25 12:20:50;;;;;;;5.47;1.10;;;;;;;;;;5049019;28;20099;-74
2023/02/25 12:23:35;;;;;;;3.60;1.50;;;;;;;;;;5050169;28;20043;-76
2023/02/25 12:26:09;;;;;;;2.50;1.17;;;;;;;;;;5045909;28;20056;-69
2023/02/25 12:28:44;;;;;;;2.45;1.17;;;;;;;;;;5038989;28;20030;-69
2023/02/25 12:31:22;;;;;;;0.95;0.88;;;;;;;;;;5056253;28;20311;-69
2023/02/25 12:34:06;;;;;;;4.07;1.35;;;;;;;;;;5050451;28;20033;-70
2023/02/25 12:36:54;;;;;;;3.10;1.27;;;;;;;;;;5050208;28;20399;-70
2023/02/25 12:39:25;;;;;;;5.07;1.55;;;;;;;;;;5008044;28;20041;-70
2023/02/25 12:42:02;;;;;;;5.32;1.30;;;;;;;;;;5047783;28;20265;-72
2023/02/25 12:44:46;;;;;;;3.53;1.65;;;;;;;;;;5036591;28;20054;-68
2023/02/25 12:47:14;;;;;;;3.50;1.48;;;;;;;;;;5042824;28;20060;-66
2023/02/25 12:49:56;;;;;;;5.68;2.38;;;;;;;;;;5043394;28;20063;-67
2023/02/25 12:52:23;;;;;;;2.92;1.30;;;;;;;;;;5047987;28;20472;-68
2023/02/25 12:54:57;;;;;;;6.00;1.58;;;;;;;;;;5049563;28;20044;-67
2023/02/25 12:57:42;;;;;;;3.83;1.63;;;;;;;;;;5041397;28;20072;-68
2023/02/25 13:00:46;;;;;;;6.45;1.40;;;;;;;;;;5044318;28;20056;-67
2023/02/25 13:03:20;;;;;;;4.60;1.40;;;;;;;;;;4941874;29;20035;-69
2023/02/25 13:05:47;;;;;;;3.25;1.67;;;;;;;;;;4931892;29;20035;-72
2023/02/25 13:08:33;;;;;;;3.88;1.67;;;;;;;;;;4997517;28;20041;-70
2023/02/25 13:10:59;;;;;;;2.90;1.40;;;;;;;;;;5044063;28;20043;-70
2023/02/25 13:13:39;;;;;;;8.43;1.90;;;;;;;;;;5049102;28;20032;-70
2023/02/25 13:16:23;;;;;;;4.30;1.75;;;;;;;;;;5049276;28;20032;-70
2023/02/25 13:18:51;;;;;;;3.63;1.60;;;;;;;;;;5046049;28;20064;-67
2023/02/25 13:21:31;;;;;;;3.03;2.40;;;;;;;;;;5041111;28;20029;-71
2023/02/25 13:24:03;;;;;;;8.75;2.13;;;;;;;;;;5048891;28;20021;-72
2023/02/25 13:26:37;;;;;;;5.50;1.80;;;;;;;;;;5045070;28;20479;-72
2023/02/25 13:29:22;;;;;;;5.50;1.52;;;;;;;;;;5044638;28;20037;-72
2023/02/25 13:31:54;;;;;;;8.32;2.03;;;;;;;;;;5043197;28;20060;-70
2023/02/25 13:34:25;;;;;;;4.55;1.90;;;;;;;;;;5052144;28;20025;-71
2023/02/25 13:37:03;;;;;;;8.32;1.98;;;;;;;;;;5048252;28;20174;-69
2023/02/25 13:39:31;;;;;;;4.43;1.80;;;;;;;;;;5036615;28;20028;-69
2023/02/25 13:42:03;;;;;;;4.88;1.90;;;;;;;;;;5038684;28;20036;-70
2023/02/25 13:44:47;;;;;;;6.28;1.60;;;;;;;;;;5036174;28;20075;-70
2023/02/25 13:47:15;;;;;;;4.75;1.80;;;;;;;;;;5039891;28;20030;-69
2023/02/25 13:49:49;;;;;;;6.57;3.17;;;;;;;;;;5046861;28;20030;-71
2023/02/25 13:52:24;;;;;;;6.28;1.70;;;;;;;;;;5048880;28;20112;-70
2023/02/25 13:55:18;;;;;;;5.90;1.35;;;;;;;;;;5041571;28;20022;-70
2023/02/25 13:57:52;;;;;;;5.80;1.67;;;;;;;;;;4986033;28;20034;-74
2023/02/25 14:00:33;;;;;;;9.68;3.50;;;;;;;;;;5042589;28;20029;-76
2023/02/25 14:03:01;;;;;;;2.70;1.50;;;;;;;;;;5049482;28;20082;-77
2023/02/25 14:05:33;;;;;;;5.75;1.83;;;;;;;;;;5049480;28;20029;-77
2023/02/25 14:08:01;;;;;;;3.33;1.30;;;;;;;;;;5057323;28;20040;-76
2023/02/25 14:10:39;;;;;;;6.82;1.40;;;;;;;;;;5049090;28;20115;-76
2023/02/25 14:13:04;;;;;;;5.95;1.50;;;;;;;;;;5047381;28;20483;-76
2023/02/25 14:15:36;;;;;;;3.03;1.47;;;;;;;;;;5044093;28;20113;-74
2023/02/25 14:18:01;;;;;;;5.07;1.67;;;;;;;;;;5041796;28;20061;-76
2023/02/25 14:21:02;;;;;;;5.43;1.80;;;;;;;;;;5041308;28;20048;-77
2023/02/25 14:23:50;;;;;;;3.67;1.38;;;;;;;;;;4953865;28;20051;-76
2023/02/25 14:26:22;;;;;;;2.63;1.13;;;;;;;;;;5023871;28;20126;-76
2023/02/25 14:28:50;;;;;;;6.20;1.52;;;;;;;;;;5046771;28;20029;-75
2023/02/25 14:31:21;;;;;;;3.75;1.67;;;;;;;;;;5048582;28;20036;-75
2023/02/25 14:34:13;;;;;;;3.78;2.00;;;;;;;;;;5045482;28;20368;-76
2023/02/25 14:36:47;;;;;;;3.22;1.35;;;;;;;;;;5017151;28;20033;-76
2023/02/25 14:39:16;;;;;;;7.40;1.55;;;;;;;;;;5059553;28;20339;-77
2023/02/25 14:41:47;;;;;;;4.68;1.45;;;;;;;;;;5046344;28;20025;-74
2023/02/25 14:44:22;;;;;;;4.55;1.30;;;;;;;;;;5044965;28;20032;-74
2023/02/25 14:46:53;;;;;;;7.65;1.77;;;;;;;;;;5045623;28;20029;-75
2023/02/25 14:49:28;;;;;;;5.65;1.50;;;;;;;;;;5050644;28;20075;-75
2023/02/25 14:51:53;;;;;;;6.57;1.33;;;;;;;;;;5051853;28;20033;-66
2023/02/25 14:54:36;;;;;;;4.28;1.55;;;;;;;;;;5046626;28;20486;-75
2023/02/25 14:57:01;;;;;;;6.22;1.60;;;;;;;;;;5043545;28;20653;-75